Hartford, Connecticut
Traffic Map
Current Weather Conditions
Hartford, Connecticut
Clear
Clear
84°
Feels Like: 84°
Wind Chill: 84° Ceiling: Unl
Heat Index: 84° Visibility: 10mi
Dew Point: 58° Wind: 7mph
Humidity: 41% Direction: 340° (NNW)
Pressure: 29.93in Gusts: 0mph
Raw Report DataKHFD 162153Z 34006KT 10SM CLR 29/14 A2993 RMK AO2 SLP134 T02890144
Traffic Incident Summary
Active as of:
Severity:
Category:
InformationThere was an issue retrieving the traffic information for this location. Please try a different location or try again shortly.
Advertisements